createdAt,value
2019-02-10T00:00:11.493Z,8.50
2019-02-10T00:02:42.710Z,8.50
2019-02-10T00:05:12.331Z,8.40
2019-02-10T00:07:41.942Z,8.40
2019-02-10T00:10:11.618Z,8.40
2019-02-10T00:12:41.225Z,8.30
2019-02-10T00:15:10.899Z,8.30
2019-02-10T00:17:40.693Z,8.30
2019-02-10T00:20:10.473Z,8.30
2019-02-10T00:22:40.083Z,8.30
2019-02-10T00:25:09.761Z,8.20
2019-02-10T00:27:39.360Z,8.30
2019-02-10T00:30:09.214Z,8.30
2019-02-10T00:32:38.818Z,8.30
2019-02-10T00:35:08.421Z,8.30
2019-02-10T00:37:38.009Z,8.30
2019-02-10T00:40:07.773Z,8.30
2019-02-10T00:42:37.454Z,8.30
2019-02-10T00:45:07.257Z,8.30
2019-02-10T00:47:36.856Z,8.30
2019-02-10T00:50:06.521Z,8.30
2019-02-10T00:52:36.184Z,8.30
2019-02-10T00:55:07.141Z,8.30
2019-02-10T00:57:36.737Z,8.20
2019-02-10T01:00:06.541Z,8.10
2019-02-10T01:02:36.221Z,8.10
2019-02-10T01:05:06.203Z,8.10
2019-02-10T01:07:36.153Z,8.00
2019-02-10T01:10:05.825Z,8.00
2019-02-10T01:12:35.505Z,8.00
2019-02-10T01:15:05.633Z,8.00
2019-02-10T01:17:35.237Z,8.00
2019-02-10T01:20:05.422Z,7.90
2019-02-10T01:22:35.026Z,7.90
2019-02-10T01:25:05.298Z,7.90
2019-02-10T01:27:34.985Z,7.90
2019-02-10T01:30:05.557Z,7.90
2019-02-10T01:32:35.261Z,7.80
2019-02-10T01:35:06.182Z,7.80
2019-02-10T01:37:35.807Z,7.90
2019-02-10T01:40:06.189Z,7.90
2019-02-10T01:42:35.882Z,7.80
2019-02-10T01:45:06.926Z,7.80
2019-02-10T01:47:36.758Z,7.80
2019-02-10T01:50:07.596Z,7.70
2019-02-10T01:52:37.173Z,7.70
2019-02-10T01:55:08.523Z,7.60
2019-02-10T01:57:38.216Z,7.70
2019-02-10T02:00:09.194Z,7.70
2019-02-10T02:02:38.797Z,7.60
2019-02-10T02:05:09.934Z,7.60
2019-02-10T02:07:39.537Z,7.60
2019-02-10T02:10:10.700Z,7.60
2019-02-10T02:12:40.376Z,7.60
2019-02-10T02:15:12.391Z,7.60
2019-02-10T02:17:42.051Z,7.50
2019-02-10T02:20:12.868Z,7.50
2019-02-10T02:22:42.545Z,7.50
2019-02-10T02:25:13.024Z,7.50
2019-02-10T02:27:42.626Z,7.40
2019-02-10T02:30:14.261Z,7.40
2019-02-10T02:32:45.445Z,7.40
2019-02-10T02:35:15.144Z,7.40
2019-02-10T02:37:44.763Z,7.40
2019-02-10T02:40:14.372Z,7.40
2019-02-10T02:42:44.029Z,7.30
2019-02-10T02:45:14.130Z,7.40
2019-02-10T02:47:43.739Z,7.30
2019-02-10T02:50:13.416Z,7.30
2019-02-10T02:52:43.218Z,7.30
2019-02-10T02:55:12.818Z,7.20
2019-02-10T02:57:42.420Z,7.30
2019-02-10T03:00:13.134Z,7.20
2019-02-10T03:02:42.744Z,7.30
2019-02-10T03:05:12.336Z,7.20
2019-02-10T03:07:41.919Z,7.20
2019-02-10T03:10:11.692Z,7.20
2019-02-10T03:12:41.309Z,7.20
2019-02-10T03:15:11.166Z,7.10
2019-02-10T03:17:40.754Z,7.10
2019-02-10T03:20:10.511Z,7.00
2019-02-10T03:22:40.097Z,7.00
2019-02-10T03:25:09.763Z,6.90
2019-02-10T03:27:39.354Z,6.80
2019-02-10T03:30:09.311Z,6.80
2019-02-10T03:32:39.169Z,6.80
2019-02-10T03:35:08.910Z,6.80
2019-02-10T03:37:38.499Z,6.80
2019-02-10T03:40:08.326Z,6.80
2019-02-10T03:42:37.927Z,6.80
2019-02-10T03:45:08.296Z,6.80
2019-02-10T03:47:38.067Z,6.70
2019-02-10T03:50:09.270Z,6.70
2019-02-10T03:52:39.018Z,6.70
2019-02-10T03:55:08.807Z,6.60
2019-02-10T03:57:38.396Z,6.60
2019-02-10T04:00:08.563Z,6.60
2019-02-10T04:02:38.273Z,6.50
2019-02-10T04:05:07.864Z,6.50
2019-02-10T04:07:37.445Z,6.50
2019-02-10T04:10:08.024Z,6.50
2019-02-10T04:12:37.629Z,6.50
2019-02-10T04:15:07.303Z,6.50
2019-02-10T04:17:36.925Z,6.50
2019-02-10T04:20:07.054Z,6.40
2019-02-10T04:22:36.665Z,6.50
2019-02-10T04:25:06.284Z,6.40
2019-02-10T04:27:35.890Z,6.50
2019-02-10T04:30:05.795Z,6.40
2019-02-10T04:32:35.417Z,6.40
2019-02-10T04:35:05.455Z,6.40
2019-02-10T04:37:35.051Z,6.40
2019-02-10T04:40:04.885Z,6.40
2019-02-10T04:42:34.485Z,6.40
2019-02-10T04:45:04.451Z,6.40
2019-02-10T04:47:34.147Z,6.40
2019-02-10T04:50:03.948Z,6.40
2019-02-10T04:52:33.548Z,6.40
2019-02-10T04:55:03.135Z,6.40
2019-02-10T04:57:32.722Z,6.30
2019-02-10T05:00:02.307Z,6.30
2019-02-10T05:02:33.189Z,6.30
2019-02-10T05:05:02.873Z,6.30
2019-02-10T05:07:32.463Z,6.30
2019-02-10T05:10:02.071Z,6.40
2019-02-10T05:12:31.672Z,6.40
2019-02-10T05:15:01.285Z,6.40
2019-02-10T05:17:31.045Z,6.30
2019-02-10T05:20:00.647Z,6.30
2019-02-10T05:22:30.244Z,6.40
2019-02-10T05:24:59.852Z,6.40
2019-02-10T05:27:29.511Z,6.40
2019-02-10T05:29:59.127Z,6.40
2019-02-10T05:32:28.737Z,6.40
2019-02-10T05:34:58.317Z,6.40
2019-02-10T05:37:27.912Z,6.50
2019-02-10T05:39:57.536Z,6.50
2019-02-10T05:42:27.148Z,6.50
2019-02-10T05:44:56.755Z,6.60
2019-02-10T05:47:26.366Z,6.70
2019-02-10T05:49:55.960Z,6.80
2019-02-10T05:52:25.587Z,6.80
2019-02-10T05:54:55.193Z,6.70
2019-02-10T05:57:24.810Z,6.70
2019-02-10T05:59:54.383Z,6.60
2019-02-10T06:02:31.826Z,6.60
2019-02-10T06:05:07.882Z,6.70
2019-02-10T06:07:37.494Z,6.70
2019-02-10T06:10:07.282Z,6.70
2019-02-10T06:12:36.887Z,6.70
2019-02-10T06:15:07.542Z,6.70
2019-02-10T06:17:37.207Z,6.70
2019-02-10T06:20:07.574Z,6.80
2019-02-10T06:22:37.240Z,6.90
2019-02-10T06:25:07.088Z,6.90
2019-02-10T06:27:36.709Z,6.90
2019-02-10T06:30:06.910Z,6.80
2019-02-10T06:32:36.532Z,6.80
2019-02-10T06:35:07.122Z,6.80
2019-02-10T06:37:36.781Z,6.80
2019-02-10T06:40:08.288Z,6.70
2019-02-10T06:42:37.895Z,6.70
2019-02-10T06:45:12.666Z,6.80
2019-02-10T06:47:43.242Z,6.80
2019-02-10T06:50:12.883Z,6.80
2019-02-10T06:52:42.493Z,6.80
2019-02-10T06:55:13.101Z,6.80
2019-02-10T06:57:42.702Z,6.90
2019-02-10T07:00:31.481Z,6.90
2019-02-10T07:03:33.190Z,6.90
2019-02-10T07:06:02.968Z,7.00
2019-02-10T07:08:32.652Z,7.10
2019-02-10T07:11:02.274Z,7.10
2019-02-10T07:13:34.849Z,7.10
2019-02-10T07:16:47.901Z,7.10
2019-02-10T07:19:53.817Z,7.10
2019-02-10T07:23:20.375Z,7.20
2019-02-10T07:25:57.782Z,7.20
2019-02-10T07:28:48.782Z,7.30
2019-02-10T07:31:37.946Z,7.40
2019-02-10T07:34:30.141Z,7.40
2019-02-10T07:37:20.646Z,7.50
2019-02-10T07:40:37.717Z,7.60
2019-02-10T07:43:26.582Z,7.80
2019-02-10T07:46:18.108Z,7.80
2019-02-10T07:49:15.873Z,7.90
2019-02-10T07:52:33.013Z,7.90
2019-02-10T07:56:08.304Z,7.90
2019-02-10T07:59:24.202Z,8.00
2019-02-10T08:02:47.268Z,8.00
2019-02-10T08:05:49.194Z,8.10
2019-02-10T08:08:53.985Z,8.10
2019-02-10T08:11:38.037Z,8.10
2019-02-10T08:14:30.393Z,8.10
2019-02-10T08:17:29.043Z,8.20
2019-02-10T08:20:27.716Z,8.10
2019-02-10T08:23:20.210Z,8.10
2019-02-10T08:26:21.306Z,8.20
2019-02-10T08:29:11.553Z,8.20
2019-02-10T08:32:13.307Z,8.20
2019-02-10T08:35:21.198Z,8.10
2019-02-10T08:38:28.186Z,8.10
2019-02-10T08:41:39.053Z,8.10
2019-02-10T08:44:40.399Z,8.00
2019-02-10T08:47:40.254Z,8.00
2019-02-10T08:50:32.505Z,8.00
2019-02-10T08:53:09.049Z,7.90
2019-02-10T08:55:38.779Z,7.90
2019-02-10T08:58:08.532Z,7.90
2019-02-10T09:00:38.157Z,8.00
2019-02-10T09:03:07.745Z,8.00
2019-02-10T09:05:37.430Z,8.00
2019-02-10T09:08:07.101Z,8.00
2019-02-10T09:10:36.701Z,8.00
2019-02-10T09:13:06.482Z,8.00
2019-02-10T09:15:36.059Z,8.00
2019-02-10T09:18:05.830Z,8.00
2019-02-10T09:20:35.503Z,7.90
2019-02-10T09:23:05.177Z,7.90
2019-02-10T09:25:35.602Z,7.80
2019-02-10T09:28:05.205Z,7.70
2019-02-10T09:30:34.945Z,7.70
2019-02-10T09:33:04.649Z,7.60
2019-02-10T09:35:35.338Z,7.60
2019-02-10T09:38:05.213Z,7.50
2019-02-10T09:40:34.801Z,7.50
2019-02-10T09:43:04.394Z,7.40
2019-02-10T09:45:34.010Z,7.40
2019-02-10T09:48:03.764Z,7.40
2019-02-10T09:50:33.342Z,7.40
2019-02-10T09:53:02.933Z,7.40
2019-02-10T09:55:32.549Z,7.30
2019-02-10T09:58:02.147Z,7.30
2019-02-10T10:00:31.729Z,7.30
2019-02-10T10:03:01.582Z,7.30
2019-02-10T10:05:31.441Z,7.30
2019-02-10T10:08:01.037Z,7.30
2019-02-10T10:10:30.630Z,7.30
2019-02-10T10:13:00.222Z,7.20
2019-02-10T10:15:29.834Z,7.30
2019-02-10T10:17:59.417Z,7.30
2019-02-10T10:20:29.069Z,7.30
2019-02-10T10:22:58.650Z,7.30
2019-02-10T10:25:28.241Z,7.30
2019-02-10T10:27:57.835Z,7.30
2019-02-10T10:30:27.454Z,7.30
2019-02-10T10:32:57.050Z,7.20
2019-02-10T10:35:27.709Z,7.20
2019-02-10T10:37:57.337Z,7.20
2019-02-10T10:40:26.946Z,7.20
2019-02-10T10:42:56.537Z,7.20
2019-02-10T10:45:26.206Z,7.20
2019-02-10T10:47:55.821Z,7.20
2019-02-10T10:50:25.417Z,7.20
2019-02-10T10:52:55.045Z,7.20
2019-02-10T10:55:24.650Z,7.20
2019-02-10T10:57:54.440Z,7.20
2019-02-10T11:00:24.047Z,7.20
2019-02-10T11:02:53.679Z,7.20
2019-02-10T11:05:23.597Z,7.20
2019-02-10T11:07:53.267Z,7.20
2019-02-10T11:10:22.862Z,7.20
2019-02-10T11:12:52.453Z,7.20
2019-02-10T11:15:22.077Z,7.20
2019-02-10T11:17:51.838Z,7.20
2019-02-10T11:20:21.450Z,7.30
2019-02-10T11:22:51.046Z,7.40
2019-02-10T11:25:20.643Z,7.40
2019-02-10T11:27:50.254Z,7.50
2019-02-10T11:30:19.851Z,7.60
2019-02-10T11:32:49.442Z,7.70
2019-02-10T11:35:19.031Z,7.70
2019-02-10T11:37:48.725Z,7.80
2019-02-10T11:40:18.438Z,7.80
2019-02-10T11:42:48.033Z,7.90
2019-02-10T11:45:18.727Z,8.00
2019-02-10T11:47:48.321Z,8.10
2019-02-10T11:50:17.957Z,8.10
2019-02-10T11:52:47.578Z,8.20
2019-02-10T11:55:17.229Z,8.20
2019-02-10T11:57:46.829Z,8.20
2019-02-10T12:00:17.030Z,8.20
2019-02-10T12:02:46.721Z,8.10
2019-02-10T12:05:16.350Z,8.00
2019-02-10T12:07:46.188Z,8.00
2019-02-10T12:10:15.982Z,7.90
2019-02-10T12:12:45.569Z,7.90
2019-02-10T12:15:15.342Z,7.90
2019-02-10T12:17:44.926Z,7.80
2019-02-10T12:20:14.617Z,7.70
2019-02-10T12:22:49.895Z,7.60
2019-02-10T12:25:15.591Z,7.60
2019-02-10T12:27:45.179Z,7.60
2019-02-10T12:30:14.850Z,7.60
2019-02-10T12:32:44.469Z,7.60
2019-02-10T12:35:14.069Z,7.50
2019-02-10T12:37:43.658Z,7.50
2019-02-10T12:40:13.318Z,7.50
2019-02-10T12:42:42.921Z,7.50
2019-02-10T12:45:12.726Z,7.60
2019-02-10T12:47:42.309Z,7.60
2019-02-10T12:50:12.275Z,7.70
2019-02-10T12:52:41.965Z,7.70
2019-02-10T12:55:11.780Z,7.70
2019-02-10T12:57:41.511Z,7.70
2019-02-10T13:00:13.706Z,7.70
2019-02-10T13:02:43.381Z,7.60
2019-02-10T13:05:13.089Z,7.60
2019-02-10T13:07:42.693Z,7.50
2019-02-10T13:10:12.453Z,7.50
2019-02-10T13:12:42.195Z,7.50
2019-02-10T13:15:12.136Z,7.40
2019-02-10T13:17:41.818Z,7.40
2019-02-10T13:20:11.606Z,7.50
2019-02-10T13:22:41.239Z,7.40
2019-02-10T13:25:11.082Z,7.40
2019-02-10T13:27:41.127Z,7.40
2019-02-10T13:30:12.133Z,7.40
2019-02-10T13:32:41.782Z,7.30
2019-02-10T13:35:11.656Z,7.20
2019-02-10T13:37:41.395Z,7.20
2019-02-10T13:40:16.966Z,7.20
2019-02-10T13:42:46.863Z,7.20
2019-02-10T13:45:16.465Z,7.20
2019-02-10T13:47:46.183Z,7.10
2019-02-10T13:50:16.359Z,7.10
2019-02-10T13:52:45.961Z,7.20
2019-02-10T13:55:15.657Z,7.20
2019-02-10T13:57:45.624Z,7.20
2019-02-10T14:00:17.222Z,7.20
2019-02-10T14:02:46.848Z,7.10
2019-02-10T14:05:16.572Z,7.10
2019-02-10T14:07:46.146Z,7.10
2019-02-10T14:10:15.895Z,7.10
2019-02-10T14:12:45.708Z,7.00
2019-02-10T14:15:15.757Z,7.00
2019-02-10T14:17:45.361Z,7.00
2019-02-10T14:20:15.833Z,6.90
2019-02-10T14:22:45.501Z,6.90
2019-02-10T14:25:15.260Z,6.90
2019-02-10T14:27:44.920Z,6.80
2019-02-10T14:30:16.950Z,6.80
2019-02-10T14:32:46.870Z,6.70
2019-02-10T14:35:16.618Z,6.70
2019-02-10T14:37:46.322Z,6.60
2019-02-10T14:40:16.977Z,6.60
2019-02-10T14:42:46.682Z,6.60
2019-02-10T14:45:16.415Z,6.60
2019-02-10T14:47:47.163Z,6.70
2019-02-10T14:50:16.846Z,6.70
2019-02-10T14:52:47.448Z,6.70
2019-02-10T14:55:17.157Z,6.70
2019-02-10T14:57:46.746Z,6.70
2019-02-10T15:00:16.458Z,6.60
2019-02-10T15:02:46.078Z,6.60
2019-02-10T15:05:15.644Z,6.70
2019-02-10T15:07:45.226Z,6.60
2019-02-10T15:10:14.989Z,6.70
2019-02-10T15:12:44.590Z,6.60
2019-02-10T15:15:14.198Z,6.60
2019-02-10T15:17:44.771Z,6.50
2019-02-10T15:20:14.636Z,6.50
2019-02-10T15:22:44.383Z,6.40
2019-02-10T15:25:14.521Z,6.40
2019-02-10T15:27:44.608Z,6.40
2019-02-10T15:30:14.565Z,6.30
2019-02-10T15:32:44.241Z,6.30
2019-02-10T15:35:13.839Z,6.20
2019-02-10T15:37:43.669Z,6.20
2019-02-10T15:40:13.809Z,6.20
2019-02-10T15:42:43.829Z,6.20
2019-02-10T15:45:14.214Z,6.20
2019-02-10T15:47:44.095Z,6.20
2019-02-10T15:50:14.441Z,6.20
2019-02-10T15:52:44.115Z,6.20
2019-02-10T15:55:14.030Z,6.00
2019-02-10T15:57:43.833Z,5.90
2019-02-10T16:00:16.734Z,5.80
2019-02-10T16:02:47.401Z,5.70
2019-02-10T16:05:17.046Z,5.70
2019-02-10T16:07:46.737Z,5.70
2019-02-10T16:10:16.434Z,5.70
2019-02-10T16:12:46.084Z,5.60
2019-02-10T16:15:17.483Z,5.50
2019-02-10T16:17:49.188Z,5.40
2019-02-10T16:20:19.294Z,5.40
2019-02-10T16:22:53.532Z,5.30
2019-02-10T16:25:26.657Z,5.30
2019-02-10T16:27:57.365Z,5.30
2019-02-10T16:30:27.458Z,5.20
2019-02-10T16:32:57.064Z,5.20
2019-02-10T16:35:26.662Z,5.10
2019-02-10T16:37:56.352Z,5.10
2019-02-10T16:40:26.013Z,5.00
2019-02-10T16:42:55.816Z,5.00
2019-02-10T16:45:25.523Z,5.00
2019-02-10T16:47:55.175Z,5.00
2019-02-10T16:50:24.863Z,5.10
2019-02-10T16:52:54.478Z,5.10
2019-02-10T16:55:24.085Z,5.10
2019-02-10T16:57:54.609Z,5.10
2019-02-10T17:00:24.321Z,5.20
2019-02-10T17:02:53.899Z,5.10
2019-02-10T17:05:23.511Z,5.10
2019-02-10T17:07:53.137Z,5.20
2019-02-10T17:10:22.797Z,5.10
2019-02-10T17:12:52.417Z,5.10
2019-02-10T17:15:22.154Z,5.00
2019-02-10T17:17:51.915Z,5.10
2019-02-10T17:20:21.509Z,5.10
2019-02-10T17:22:51.134Z,5.10
2019-02-10T17:25:20.767Z,5.10
2019-02-10T17:27:50.361Z,5.10
2019-02-10T17:30:20.065Z,5.00
2019-02-10T17:32:49.689Z,5.00
2019-02-10T17:35:19.299Z,5.00
2019-02-10T17:37:51.373Z,5.00
2019-02-10T17:40:24.897Z,5.00
2019-02-10T17:42:54.506Z,5.00
2019-02-10T17:45:24.136Z,5.00
2019-02-10T17:47:53.823Z,5.00
2019-02-10T17:50:23.413Z,5.00
2019-02-10T17:52:53.010Z,5.00
2019-02-10T17:55:22.664Z,5.00
2019-02-10T17:57:52.273Z,4.90
2019-02-10T18:00:24.501Z,4.90
2019-02-10T18:02:54.090Z,4.80
2019-02-10T18:05:23.682Z,4.80
2019-02-10T18:07:53.343Z,4.80
2019-02-10T18:10:22.981Z,4.80
2019-02-10T18:12:52.625Z,4.80
2019-02-10T18:15:47.339Z,4.70
2019-02-10T18:18:34.940Z,4.70
2019-02-10T18:21:28.623Z,4.70
2019-02-10T18:24:32.749Z,4.70
2019-02-10T18:27:19.639Z,4.80
2019-02-10T18:29:59.488Z,4.80
2019-02-10T18:32:44.110Z,4.90
2019-02-10T18:35:27.463Z,5.00
2019-02-10T18:38:15.287Z,5.00
2019-02-10T18:40:55.994Z,5.00
2019-02-10T18:43:56.344Z,5.10
2019-02-10T18:46:33.445Z,5.10
2019-02-10T18:49:21.215Z,5.10
2019-02-10T18:52:11.175Z,5.10
2019-02-10T18:55:09.133Z,5.00
2019-02-10T18:57:48.223Z,5.00
2019-02-10T19:00:39.103Z,5.00
2019-02-10T19:03:15.890Z,5.10
2019-02-10T19:05:55.218Z,5.10
2019-02-10T19:08:42.597Z,5.10
2019-02-10T19:11:30.857Z,5.10
2019-02-10T19:14:10.525Z,5.20
2019-02-10T19:16:57.949Z,5.20
2019-02-10T19:19:35.899Z,5.30
2019-02-10T19:22:34.498Z,5.30
2019-02-10T19:25:29.410Z,5.30
2019-02-10T19:28:16.731Z,5.30
2019-02-10T19:31:08.292Z,5.30
2019-02-10T19:33:49.913Z,5.30
2019-02-10T19:36:35.494Z,5.30
2019-02-10T19:39:13.273Z,5.30
2019-02-10T19:41:55.474Z,5.30
2019-02-10T19:44:28.062Z,5.30
2019-02-10T19:47:03.093Z,5.30
2019-02-10T19:49:50.775Z,5.30
2019-02-10T19:52:48.169Z,5.30
2019-02-10T19:55:29.138Z,5.30
2019-02-10T19:58:13.386Z,5.40
2019-02-10T20:01:00.981Z,5.40
2019-02-10T20:03:49.677Z,5.40
2019-02-10T20:06:25.701Z,5.40
2019-02-10T20:09:14.585Z,5.40
2019-02-10T20:12:04.172Z,5.40
2019-02-10T20:14:53.077Z,5.40
2019-02-10T20:17:41.775Z,5.30
2019-02-10T20:20:33.554Z,5.20
2019-02-10T20:23:27.941Z,5.20
2019-02-10T20:26:19.457Z,5.20
2019-02-10T20:29:07.049Z,5.20
2019-02-10T20:32:08.071Z,5.20
2019-02-10T20:34:48.420Z,5.30
2019-02-10T20:37:31.053Z,5.30
2019-02-10T20:40:10.359Z,5.40
2019-02-10T20:42:47.453Z,5.50
2019-02-10T20:45:24.834Z,5.50
2019-02-10T20:48:17.485Z,5.60
2019-02-10T20:51:06.187Z,5.60
2019-02-10T20:53:56.409Z,5.70
2019-02-10T20:56:33.999Z,5.70
2019-02-10T20:59:10.273Z,5.70
2019-02-10T21:02:01.765Z,5.70
2019-02-10T21:04:58.221Z,5.70
2019-02-10T21:07:50.020Z,5.70
2019-02-10T21:10:37.530Z,5.80
2019-02-10T21:13:36.217Z,5.80
2019-02-10T21:16:14.499Z,5.90
2019-02-10T21:19:01.026Z,5.90
2019-02-10T21:21:43.478Z,6.00
2019-02-10T21:24:26.841Z,6.00
2019-02-10T21:27:07.006Z,6.10
2019-02-10T21:29:58.494Z,6.10
2019-02-10T21:32:35.074Z,6.10
2019-02-10T21:35:15.630Z,6.20
2019-02-10T21:38:00.110Z,6.20
2019-02-10T21:40:34.913Z,6.20
2019-02-10T21:43:10.170Z,6.20
2019-02-10T21:45:57.771Z,6.20
2019-02-10T21:48:31.029Z,6.20
2019-02-10T21:51:00.664Z,6.20
2019-02-10T21:53:30.261Z,6.20
2019-02-10T21:55:59.855Z,6.30
2019-02-10T21:58:29.465Z,6.30
2019-02-10T22:00:59.078Z,6.30
2019-02-10T22:03:28.676Z,6.30
2019-02-10T22:05:58.259Z,6.30
2019-02-10T22:08:27.860Z,6.20
2019-02-10T22:10:57.522Z,6.20
2019-02-10T22:13:27.133Z,6.20
2019-02-10T22:15:56.727Z,6.10
2019-02-10T22:18:26.321Z,6.00
2019-02-10T22:20:56.991Z,6.00
2019-02-10T22:23:26.589Z,5.90
2019-02-10T22:25:56.188Z,5.90
2019-02-10T22:28:25.897Z,5.90
2019-02-10T22:30:55.554Z,5.90
2019-02-10T22:33:25.150Z,5.90
2019-02-10T22:35:54.760Z,5.90
2019-02-10T22:38:24.370Z,5.80
2019-02-10T22:40:53.959Z,5.80
2019-02-10T22:43:24.631Z,5.80
2019-02-10T22:45:54.237Z,5.70
2019-02-10T22:48:23.841Z,5.70
2019-02-10T22:50:53.469Z,5.60
2019-02-10T22:53:23.122Z,5.60
2019-02-10T22:55:52.753Z,5.60
2019-02-10T22:58:22.357Z,5.50
2019-02-10T23:00:58.150Z,5.50
2019-02-10T23:03:27.827Z,5.40
2019-02-10T23:05:57.445Z,5.30
2019-02-10T23:08:27.115Z,5.30
2019-02-10T23:10:57.349Z,5.30
2019-02-10T23:13:26.973Z,5.30
2019-02-10T23:15:56.621Z,5.40
2019-02-10T23:18:26.226Z,5.40
2019-02-10T23:20:55.877Z,5.40
2019-02-10T23:23:25.458Z,5.40
2019-02-10T23:25:55.074Z,5.40
2019-02-10T23:28:24.893Z,5.30
2019-02-10T23:30:54.514Z,5.10
2019-02-10T23:33:24.131Z,5.10
2019-02-10T23:35:53.730Z,5.00
2019-02-10T23:38:23.322Z,5.00
2019-02-10T23:40:52.924Z,5.10
2019-02-10T23:43:22.518Z,5.10
2019-02-10T23:45:52.137Z,5.10
2019-02-10T23:48:21.730Z,5.20
2019-02-10T23:50:51.337Z,5.20
2019-02-10T23:53:20.972Z,5.20
2019-02-10T23:55:50.598Z,5.30
2019-02-10T23:58:20.209Z,5.30
